createdAt,value
2022-08-12T00:02:02.589Z,19.95
2022-08-12T00:04:52.603Z,19.76
2022-08-12T00:07:38.960Z,19.64
2022-08-12T00:10:24.718Z,19.50
2022-08-12T00:13:11.507Z,19.70
2022-08-12T00:16:01.466Z,19.62
2022-08-12T00:18:47.392Z,19.52
2022-08-12T00:21:36.288Z,19.71
2022-08-12T00:24:22.552Z,19.78
2022-08-12T00:27:08.422Z,19.61
2022-08-12T00:29:54.332Z,19.55
2022-08-12T00:32:41.375Z,19.23
2022-08-12T00:35:38.196Z,19.58
2022-08-12T00:38:25.890Z,19.66
2022-08-12T00:41:12.599Z,19.68
2022-08-12T00:43:44.070Z,19.36
2022-08-12T00:46:29.435Z,19.37
2022-08-12T00:49:01.682Z,19.41
2022-08-12T00:51:52.889Z,19.22
2022-08-12T00:54:20.930Z,18.89
2022-08-12T00:56:51.117Z,18.93
2022-08-12T00:59:19.389Z,18.50
2022-08-12T01:02:11.032Z,18.03
2022-08-12T01:04:57.506Z,17.90
2022-08-12T01:07:45.419Z,18.37
2022-08-12T01:10:32.928Z,18.60
2022-08-12T01:13:18.617Z,18.59
2022-08-12T01:15:50.383Z,18.64
2022-08-12T01:18:19.048Z,18.58
2022-08-12T01:20:58.007Z,18.54
2022-08-12T01:23:41.308Z,18.58
2022-08-12T01:26:16.474Z,18.59
2022-08-12T01:28:46.129Z,18.61
2022-08-12T01:31:16.482Z,18.43
2022-08-12T01:33:57.095Z,18.47
2022-08-12T01:36:27.688Z,18.60
2022-08-12T01:38:59.030Z,18.36
2022-08-12T01:41:31.737Z,18.46
2022-08-12T01:44:02.218Z,18.26
2022-08-12T01:46:43.711Z,18.24
2022-08-12T01:49:39.716Z,18.23
2022-08-12T01:52:19.980Z,18.26
2022-08-12T01:54:53.246Z,18.29
2022-08-12T01:57:57.797Z,18.12
2022-08-12T02:00:20.085Z,17.96
2022-08-12T02:02:54.937Z,17.61
2022-08-12T02:05:56.783Z,17.37
2022-08-12T02:08:52.106Z,17.45
2022-08-12T02:11:24.129Z,17.52
2022-08-12T02:14:18.568Z,17.41
2022-08-12T02:17:06.354Z,17.54
2022-08-12T02:19:49.564Z,17.37
2022-08-12T02:22:28.608Z,17.27
2022-08-12T02:25:02.518Z,17.08
2022-08-12T02:27:35.866Z,17.28
2022-08-12T02:30:06.487Z,17.36
2022-08-12T02:32:40.315Z,17.29
2022-08-12T02:35:11.255Z,17.21
2022-08-12T02:37:40.831Z,17.07
2022-08-12T02:40:13.052Z,17.04
2022-08-12T02:42:47.871Z,16.98
2022-08-12T02:45:21.473Z,16.93
2022-08-12T02:47:59.916Z,17.09
2022-08-12T02:50:32.968Z,17.15
2022-08-12T02:53:01.493Z,17.25
2022-08-12T02:55:36.181Z,17.35
2022-08-12T02:58:11.953Z,17.44
2022-08-12T03:00:42.952Z,17.48
2022-08-12T03:03:12.815Z,17.47
2022-08-12T03:05:48.627Z,17.59
2022-08-12T03:08:32.772Z,17.47
2022-08-12T03:11:06.174Z,17.38
2022-08-12T03:13:42.760Z,17.06
2022-08-12T03:16:12.428Z,16.94
2022-08-12T03:18:45.740Z,16.84
2022-08-12T03:21:55.462Z,16.74
2022-08-12T03:24:07.205Z,16.84
2022-08-12T03:26:36.438Z,16.76
2022-08-12T03:29:06.949Z,16.82
2022-08-12T03:31:36.267Z,16.80
2022-08-12T03:34:07.604Z,16.58
2022-08-12T03:36:39.565Z,16.65
2022-08-12T03:39:35.582Z,16.70
2022-08-12T03:42:23.217Z,16.86
2022-08-12T03:45:15.354Z,16.83
2022-08-12T03:48:18.720Z,17.04
2022-08-12T03:51:05.745Z,17.15
2022-08-12T03:53:51.731Z,17.30
2022-08-12T03:56:37.689Z,17.28
2022-08-12T03:59:24.993Z,17.33
2022-08-12T04:01:57.165Z,17.21
2022-08-12T04:04:29.682Z,17.08
2022-08-12T04:06:58.889Z,16.91
2022-08-12T04:09:27.376Z,16.86
2022-08-12T04:12:12.445Z,17.24
2022-08-12T04:14:40.559Z,17.22
2022-08-12T04:17:09.394Z,17.49
2022-08-12T04:19:38.707Z,17.31
2022-08-12T04:22:06.577Z,17.58
2022-08-12T04:24:36.391Z,17.67
2022-08-12T04:27:08.310Z,17.97
2022-08-12T04:30:21.291Z,18.14
2022-08-12T04:32:25.334Z,17.69
2022-08-12T04:34:55.227Z,18.05
2022-08-12T04:37:23.448Z,17.83
2022-08-12T04:39:52.726Z,17.87
2022-08-12T04:42:21.180Z,17.68
2022-08-12T04:44:49.457Z,17.43
2022-08-12T04:47:17.849Z,17.72
2022-08-12T04:49:48.123Z,17.68
2022-08-12T04:52:17.399Z,17.61
2022-08-12T04:54:45.915Z,17.81
2022-08-12T04:57:13.700Z,17.79
2022-08-12T04:59:47.908Z,18.16
2022-08-12T05:02:21.586Z,18.28
2022-08-12T05:04:52.720Z,18.28
2022-08-12T05:07:24.299Z,18.48
2022-08-12T05:10:00.630Z,18.59
2022-08-12T05:12:43.041Z,18.79
2022-08-12T05:15:27.751Z,18.80
2022-08-12T05:18:00.245Z,18.96
2022-08-12T05:20:35.798Z,19.08
2022-08-12T05:23:13.076Z,19.35
2022-08-12T05:25:43.254Z,19.32
2022-08-12T05:28:13.038Z,19.33
2022-08-12T05:30:42.556Z,19.41
2022-08-12T05:33:11.947Z,19.48
2022-08-12T05:35:42.820Z,19.57
2022-08-12T05:38:30.899Z,19.70
2022-08-12T05:40:58.709Z,19.84
2022-08-12T05:43:26.912Z,20.19
2022-08-12T05:45:54.841Z,20.28
2022-08-12T05:48:23.353Z,20.31
2022-08-12T05:50:52.557Z,20.32
2022-08-12T05:53:21.691Z,20.79
2022-08-12T05:55:49.445Z,20.87
2022-08-12T05:58:17.191Z,20.93
2022-08-12T06:00:44.957Z,20.68
2022-08-12T06:03:14.063Z,21.11
2022-08-12T06:05:55.167Z,21.37
2022-08-12T06:08:26.282Z,21.83
2022-08-12T06:10:57.074Z,21.79
2022-08-12T06:13:25.487Z,21.98
2022-08-12T06:15:56.883Z,22.23
2022-08-12T06:18:29.322Z,22.45
2022-08-12T06:21:01.689Z,22.64
2022-08-12T06:23:31.298Z,22.84
2022-08-12T06:26:00.165Z,22.56
2022-08-12T06:28:30.487Z,22.87
2022-08-12T06:31:24.852Z,22.99
2022-08-12T06:33:59.481Z,23.26
2022-08-12T06:36:37.539Z,22.90
2022-08-12T06:39:14.782Z,23.37
2022-08-12T06:42:05.041Z,22.87
2022-08-12T06:44:50.365Z,23.23
2022-08-12T06:47:19.824Z,23.08
2022-08-12T06:49:48.533Z,22.80
2022-08-12T06:52:17.283Z,23.11
2022-08-12T06:54:46.459Z,23.14
2022-08-12T06:58:08.043Z,23.51
2022-08-12T07:00:01.989Z,23.59
2022-08-12T07:02:32.574Z,23.49
2022-08-12T07:05:04.260Z,24.20
2022-08-12T07:07:31.979Z,24.59
2022-08-12T07:10:06.170Z,24.12
2022-08-12T07:12:36.752Z,24.14
2022-08-12T07:15:05.545Z,24.30
2022-08-12T07:17:37.498Z,24.16
2022-08-12T07:20:09.945Z,25.18
2022-08-12T07:22:39.072Z,24.29
2022-08-12T07:25:27.093Z,24.68
2022-08-12T07:27:55.237Z,25.14
2022-08-12T07:30:24.008Z,25.23
2022-08-12T07:32:52.245Z,25.92
2022-08-12T07:35:20.506Z,25.84
2022-08-12T07:37:50.447Z,25.53
2022-08-12T07:40:20.433Z,25.75
2022-08-12T07:42:48.299Z,25.39
2022-08-12T07:45:16.183Z,25.55
2022-08-12T07:47:44.876Z,26.19
2022-08-12T07:50:13.914Z,25.77
2022-08-12T07:52:43.674Z,26.29
2022-08-12T07:55:13.185Z,26.34
2022-08-12T07:57:54.169Z,26.39
2022-08-12T08:00:22.282Z,26.86
2022-08-12T08:02:51.310Z,27.08
2022-08-12T08:05:19.600Z,26.61
2022-08-12T08:07:47.635Z,26.27
2022-08-12T08:10:16.650Z,26.67
2022-08-12T08:12:58.106Z,27.13
2022-08-12T08:16:00.706Z,27.40
2022-08-12T08:18:26.019Z,27.66
2022-08-12T08:20:56.445Z,27.52
2022-08-12T08:23:46.070Z,27.15
2022-08-12T08:26:16.461Z,27.63
2022-08-12T08:28:44.565Z,28.17
2022-08-12T08:31:15.003Z,28.42
2022-08-12T08:34:09.533Z,28.44
2022-08-12T08:36:30.577Z,28.08
2022-08-12T08:38:58.901Z,28.59
2022-08-12T08:42:16.577Z,28.86
2022-08-12T08:44:32.206Z,29.01
2022-08-12T08:47:03.450Z,28.74
2022-08-12T08:49:31.188Z,28.82
2022-08-12T08:51:58.964Z,29.20
2022-08-12T08:54:26.762Z,29.23
2022-08-12T08:56:54.497Z,29.19
2022-08-12T08:59:22.398Z,28.80
2022-08-12T09:01:50.235Z,29.30
2022-08-12T09:05:12.244Z,29.10
2022-08-12T09:07:18.082Z,29.41
2022-08-12T09:13:03.154Z,29.71
2022-08-12T09:15:36.319Z,29.16
2022-08-12T09:20:54.842Z,29.84
2022-08-12T09:23:57.284Z,29.97
2022-08-12T09:26:10.731Z,30.32
2022-08-12T09:28:41.078Z,29.66
2022-08-12T09:32:05.935Z,30.26
2022-08-12T09:34:26.814Z,30.17
2022-08-12T09:36:58.183Z,30.92
2022-08-12T09:40:07.988Z,30.48
2022-08-12T09:42:43.968Z,30.69
2022-08-12T09:45:23.136Z,30.54
2022-08-12T09:47:59.116Z,30.97
2022-08-12T09:50:28.061Z,30.49
2022-08-12T09:53:15.246Z,30.41
2022-08-12T09:56:06.398Z,30.91
2022-08-12T09:58:58.637Z,30.98
2022-08-12T10:01:25.292Z,30.82
2022-08-12T10:04:05.581Z,30.60
2022-08-12T10:06:36.770Z,30.76
2022-08-12T10:09:23.000Z,30.95
2022-08-12T10:12:13.730Z,31.44
2022-08-12T10:14:50.187Z,31.51
2022-08-12T10:17:21.592Z,31.57
2022-08-12T10:19:51.999Z,32.00
2022-08-12T10:22:40.319Z,32.51
2022-08-12T10:26:36.751Z,32.89
2022-08-12T10:28:34.990Z,31.89
2022-08-12T10:31:04.885Z,33.09
2022-08-12T10:33:34.477Z,32.60
2022-08-12T10:36:36.351Z,32.79
2022-08-12T10:40:01.176Z,33.63
2022-08-12T10:42:18.344Z,34.25
2022-08-12T10:45:00.974Z,33.98
2022-08-12T10:48:07.182Z,34.07
2022-08-12T10:50:33.625Z,34.39
2022-08-12T10:53:08.696Z,34.69
2022-08-12T10:55:37.086Z,35.34
2022-08-12T10:58:28.110Z,36.05
2022-08-12T11:01:50.331Z,37.29
2022-08-12T11:04:19.134Z,33.66
2022-08-12T11:07:06.190Z,35.49
2022-08-12T11:09:56.244Z,36.04
2022-08-12T11:12:54.807Z,36.62
2022-08-12T11:14:59.273Z,35.36
2022-08-12T11:17:43.622Z,35.55
2022-08-12T11:20:16.489Z,36.60
2022-08-12T11:22:57.879Z,35.87
2022-08-12T11:25:56.141Z,35.88
2022-08-12T11:28:16.220Z,34.36
2022-08-12T11:30:46.470Z,34.90
2022-08-12T11:33:24.448Z,36.02
2022-08-12T11:36:16.511Z,36.84
2022-08-12T11:38:50.303Z,36.57
2022-08-12T11:41:20.684Z,35.02
2022-08-12T11:43:59.278Z,34.01
2022-08-12T11:46:28.461Z,34.00
2022-08-12T11:48:58.310Z,34.92
2022-08-12T11:51:26.543Z,36.14
2022-08-12T11:54:04.641Z,36.03
2022-08-12T11:56:38.192Z,36.14
2022-08-12T12:02:02.459Z,38.18
2022-08-12T12:04:34.263Z,35.83
2022-08-12T12:07:07.127Z,35.97
2022-08-12T12:09:52.740Z,35.32
2022-08-12T12:12:22.987Z,36.84
2022-08-12T12:14:54.877Z,36.72
2022-08-12T12:17:25.214Z,36.22
2022-08-12T12:19:53.652Z,35.76
2022-08-12T12:22:30.714Z,35.12
2022-08-12T12:24:59.307Z,35.71
2022-08-12T12:28:04.849Z,35.87
2022-08-12T12:30:34.686Z,36.19
2022-08-12T12:33:04.240Z,37.04
2022-08-12T12:36:19.771Z,36.26
2022-08-12T12:38:25.350Z,36.37
2022-08-12T12:40:53.528Z,36.44
2022-08-12T12:43:29.090Z,35.46
2022-08-12T12:46:10.497Z,35.48
2022-08-12T12:48:44.364Z,34.22
2022-08-12T12:51:49.030Z,35.96
2022-08-12T12:54:10.041Z,35.77
2022-08-12T12:56:42.287Z,36.20
2022-08-12T12:59:54.501Z,35.52
2022-08-12T13:02:08.031Z,35.82
2022-08-12T13:04:38.452Z,36.31
2022-08-12T13:07:07.029Z,36.01
2022-08-12T13:09:36.294Z,35.31
2022-08-12T13:12:05.362Z,35.98
2022-08-12T13:14:39.518Z,35.34
2022-08-12T13:17:09.622Z,35.79
2022-08-12T13:19:45.306Z,36.41
2022-08-12T13:22:21.378Z,36.44
2022-08-12T13:24:56.599Z,36.05
2022-08-12T13:27:34.591Z,36.19
2022-08-12T13:30:10.726Z,34.81
2022-08-12T13:32:40.530Z,35.48
2022-08-12T13:35:19.661Z,35.68
2022-08-12T13:37:54.711Z,36.15
2022-08-12T13:40:24.639Z,36.79
2022-08-12T13:42:57.467Z,37.03
2022-08-12T13:45:25.515Z,35.88
2022-08-12T13:47:55.840Z,35.60
2022-08-12T13:50:32.548Z,36.49
2022-08-12T13:53:06.274Z,35.68
2022-08-12T13:55:59.680Z,36.83
2022-08-12T13:58:30.931Z,36.60
2022-08-12T14:01:04.647Z,36.22
2022-08-12T14:03:50.553Z,37.10
2022-08-12T14:06:25.882Z,37.82
2022-08-12T14:08:58.337Z,37.52
2022-08-12T14:11:27.853Z,36.24
2022-08-12T14:14:03.349Z,35.66
2022-08-12T14:16:49.046Z,36.54
2022-08-12T14:19:24.544Z,36.87
2022-08-12T14:22:01.263Z,36.28
2022-08-12T14:24:35.518Z,37.20
2022-08-12T14:27:03.672Z,37.82
2022-08-12T14:29:55.817Z,37.09
2022-08-12T14:32:24.967Z,38.06
2022-08-12T14:34:56.517Z,37.25
2022-08-12T14:37:58.008Z,37.41
2022-08-12T14:40:18.220Z,37.58
2022-08-12T14:42:47.199Z,37.33
2022-08-12T14:45:15.660Z,36.80
2022-08-12T14:47:58.759Z,36.87
2022-08-12T14:50:37.455Z,36.13
2022-08-12T14:59:23.473Z,36.35
2022-08-12T15:01:54.599Z,35.72
2022-08-12T15:04:26.097Z,35.38
2022-08-12T15:06:55.102Z,35.48
2022-08-12T15:09:28.761Z,36.19
2022-08-12T15:12:03.345Z,36.55
2022-08-12T15:14:32.126Z,35.40
2022-08-12T15:17:06.479Z,35.67
2022-08-12T15:20:27.845Z,35.36
2022-08-12T15:22:36.995Z,34.73
2022-08-12T15:25:10.196Z,34.74
2022-08-12T15:28:05.094Z,35.64
2022-08-12T15:30:37.093Z,35.04
2022-08-12T15:33:12.927Z,34.86
2022-08-12T15:35:51.965Z,35.51
2022-08-12T15:38:25.066Z,34.70
2022-08-12T15:40:57.237Z,35.30
2022-08-12T15:44:15.919Z,34.46
2022-08-12T15:46:16.716Z,33.71
2022-08-12T15:48:46.991Z,34.65
2022-08-12T15:51:59.597Z,34.53
2022-08-12T15:54:33.352Z,34.74
2022-08-12T15:57:08.149Z,34.30
2022-08-12T16:00:00.289Z,34.70
2022-08-12T16:02:26.963Z,33.97
2022-08-12T16:04:55.749Z,34.48
2022-08-12T16:07:26.067Z,34.45
2022-08-12T16:10:06.907Z,33.98
2022-08-12T16:12:54.487Z,33.87
2022-08-12T16:15:26.341Z,34.07
2022-08-12T16:18:19.839Z,34.43
2022-08-12T16:20:46.735Z,34.09
2022-08-12T16:23:36.266Z,33.25
2022-08-12T16:26:15.447Z,33.81
2022-08-12T16:28:49.912Z,34.33
2022-08-12T16:31:23.155Z,33.65
2022-08-12T16:33:58.954Z,33.64
2022-08-12T16:36:29.230Z,33.36
2022-08-12T16:38:57.271Z,33.07
2022-08-12T16:41:25.614Z,33.91
2022-08-12T16:43:58.487Z,33.71
2022-08-12T16:46:32.806Z,33.20
2022-08-12T16:49:04.112Z,32.26
2022-08-12T16:51:40.408Z,32.90
2022-08-12T16:54:16.073Z,32.06
2022-08-12T16:56:50.726Z,32.69
2022-08-12T16:59:25.546Z,32.57
2022-08-12T17:01:54.263Z,32.89
2022-08-12T17:04:24.302Z,32.89
2022-08-12T17:06:52.750Z,32.60
2022-08-12T17:09:20.855Z,32.64
2022-08-12T17:11:50.251Z,32.81
2022-08-12T17:14:20.400Z,32.57
2022-08-12T17:16:55.180Z,32.30
2022-08-12T17:20:35.188Z,32.40
2022-08-12T17:22:16.342Z,32.41
2022-08-12T17:24:54.490Z,32.37
2022-08-12T17:27:24.452Z,32.36
2022-08-12T17:30:04.194Z,32.41
2022-08-12T17:32:35.822Z,31.81
2022-08-12T17:35:23.495Z,31.98
2022-08-12T17:38:00.091Z,31.24
2022-08-12T17:40:35.874Z,31.47
2022-08-12T17:43:57.239Z,31.56
2022-08-12T17:45:59.043Z,31.70
2022-08-12T17:48:34.942Z,31.79
2022-08-12T17:51:15.616Z,31.87
2022-08-12T17:54:11.157Z,31.71
2022-08-12T17:56:37.151Z,31.63
2022-08-12T17:59:07.362Z,31.68
2022-08-12T18:01:36.576Z,31.19
2022-08-12T18:04:22.873Z,30.56
2022-08-12T18:06:55.767Z,30.60
2022-08-12T18:09:32.319Z,30.38
2022-08-12T18:12:24.460Z,30.32
2022-08-12T18:14:58.639Z,30.30
2022-08-12T18:17:27.359Z,30.44
2022-08-12T18:20:06.557Z,29.67
2022-08-12T18:22:38.666Z,29.79
2022-08-12T18:26:13.187Z,29.17
2022-08-12T18:28:16.059Z,29.28
2022-08-12T18:30:52.738Z,28.83
2022-08-12T18:33:25.572Z,28.50
2022-08-12T18:35:56.851Z,28.61
2022-08-12T18:38:27.719Z,28.30
2022-08-12T18:41:21.318Z,28.40
2022-08-12T18:44:00.128Z,28.26
2022-08-12T18:46:46.922Z,27.96
2022-08-12T18:49:20.649Z,28.02
2022-08-12T18:51:55.574Z,27.79
2022-08-12T18:54:32.334Z,27.81
2022-08-12T18:57:03.734Z,27.45
2022-08-12T19:00:01.815Z,27.55
2022-08-12T19:02:23.122Z,27.11
2022-08-12T19:04:53.885Z,27.13
2022-08-12T19:07:25.123Z,27.10
2022-08-12T19:09:59.952Z,27.49
2022-08-12T19:12:57.487Z,27.18
2022-08-12T19:15:26.880Z,27.05
2022-08-12T19:18:00.403Z,26.64
2022-08-12T19:20:30.670Z,26.50
2022-08-12T19:23:07.797Z,26.52
2022-08-12T19:26:01.434Z,26.36
2022-08-12T19:28:34.621Z,26.43
2022-08-12T19:31:44.990Z,26.30
2022-08-12T19:35:06.689Z,26.14
2022-08-12T19:37:17.097Z,26.09
2022-08-12T19:40:08.035Z,26.12
2022-08-12T19:42:42.592Z,25.95
2022-08-12T19:45:15.726Z,26.00
2022-08-12T19:47:46.642Z,26.00
2022-08-12T19:50:20.250Z,25.95
2022-08-12T19:52:51.227Z,25.55
2022-08-12T19:55:27.254Z,25.67
2022-08-12T19:58:02.573Z,25.44
2022-08-12T20:00:35.932Z,25.58
2022-08-12T20:03:06.232Z,25.60
2022-08-12T20:06:05.076Z,25.53
2022-08-12T20:08:31.705Z,25.44
2022-08-12T20:12:13.643Z,25.38
2022-08-12T20:14:00.402Z,25.21
2022-08-12T20:16:57.691Z,25.34
2022-08-12T20:19:52.501Z,25.23
2022-08-12T20:22:16.780Z,25.30
2022-08-12T20:25:09.007Z,25.20
2022-08-12T20:28:04.424Z,25.14
2022-08-12T20:30:37.808Z,24.86
2022-08-12T20:33:23.147Z,25.14
2022-08-12T20:36:13.784Z,24.93
2022-08-12T20:38:40.293Z,24.83
2022-08-12T20:41:16.558Z,24.87
2022-08-12T20:43:49.644Z,24.55
2022-08-12T20:46:19.115Z,24.84
2022-08-12T20:48:54.815Z,24.61
2022-08-12T20:51:27.567Z,24.70
2022-08-12T20:53:58.970Z,24.38
2022-08-12T20:56:33.000Z,24.31
2022-08-12T20:59:05.464Z,24.29
2022-08-12T21:01:47.122Z,24.47
2022-08-12T21:04:34.598Z,24.53
2022-08-12T21:07:08.997Z,24.40
2022-08-12T21:09:41.468Z,24.46
2022-08-12T21:12:28.735Z,23.90
2022-08-12T21:15:23.152Z,23.67
2022-08-12T21:18:01.116Z,24.08
2022-08-12T21:20:39.566Z,23.98
2022-08-12T21:23:08.838Z,24.11
2022-08-12T21:25:45.450Z,23.66
2022-08-12T21:28:14.295Z,23.90
2022-08-12T21:31:11.467Z,23.57
2022-08-12T21:33:32.141Z,23.38
2022-08-12T21:36:22.562Z,23.67
2022-08-12T21:39:18.154Z,23.59
2022-08-12T21:41:50.101Z,23.61
2022-08-12T21:44:23.965Z,23.55
2022-08-12T21:47:12.072Z,23.50
2022-08-12T21:49:55.206Z,23.45
2022-08-12T21:52:28.387Z,23.61
2022-08-12T21:55:02.970Z,23.36
2022-08-12T21:57:36.441Z,23.43
2022-08-12T22:00:17.148Z,23.44
2022-08-12T22:03:04.609Z,23.20
2022-08-12T22:05:50.253Z,23.16
2022-08-12T22:08:22.122Z,23.17
2022-08-12T22:10:52.315Z,23.17
2022-08-12T22:14:08.001Z,23.09
2022-08-12T22:16:08.609Z,23.11
2022-08-12T22:18:39.348Z,22.95
2022-08-12T22:21:08.974Z,23.25
2022-08-12T22:23:51.951Z,23.08
2022-08-12T22:26:37.261Z,23.09
2022-08-12T22:29:23.054Z,22.85
2022-08-12T22:31:53.771Z,22.89
2022-08-12T22:34:29.570Z,23.07
2022-08-12T22:37:01.079Z,22.87
2022-08-12T22:39:28.932Z,22.89
2022-08-12T22:42:16.726Z,22.75
2022-08-12T22:45:05.152Z,22.93
2022-08-12T22:47:53.656Z,22.81
2022-08-12T22:50:27.696Z,23.03
2022-08-12T22:53:15.039Z,22.97
2022-08-12T22:55:59.048Z,22.99
2022-08-12T22:58:33.859Z,22.63
2022-08-12T23:01:03.449Z,22.80
2022-08-12T23:03:49.507Z,22.82
2022-08-12T23:06:23.780Z,22.70
2022-08-12T23:08:52.780Z,22.99
2022-08-12T23:11:24.015Z,22.95
2022-08-12T23:13:57.029Z,22.85
2022-08-12T23:16:31.511Z,22.87
2022-08-12T23:19:10.775Z,22.91
2022-08-12T23:22:04.870Z,22.53
2022-08-12T23:24:55.416Z,22.65
2022-08-12T23:27:50.311Z,22.48
2022-08-12T23:30:31.211Z,22.60
2022-08-12T23:33:01.408Z,22.58
2022-08-12T23:35:54.116Z,22.71
2022-08-12T23:38:28.949Z,22.60
2022-08-12T23:41:00.820Z,22.62
2022-08-12T23:43:39.574Z,22.71
2022-08-12T23:46:09.620Z,22.49
2022-08-12T23:48:38.109Z,22.43
2022-08-12T23:51:22.370Z,22.56
2022-08-12T23:53:55.294Z,22.44
2022-08-12T23:56:24.667Z,22.25
2022-08-12T23:58:55.205Z,22.23
